Butlerville, Ohio
Current Conditions -  °F | °C
As of 1:54 AM on Saturday 29 Nov 2014 (Local Time) from KILN Reporting Station
Clear Clear  
Wind Chill: 25°   Ceiling: Unl
Heat Index: 33°   Visibility: 10mi
Dew Point: 19°   Wind: 10mph
Humidity: 56%   Direction: 190°S
Pressure: 30.07"   Gusts: NA
Location:  39.2751°N, 84.0815°W
Report Text: KILN 290654Z AUTO 19009KT 10SM CLR 01/M07 A3007 RMK AO2 SLP205 T00061072
Loading
Personal Weather Stations






























Interactive Weather Map New forecast layout! Learn more

10-Day Weather Forecast

Advertisements
Track Severe Weather on mobile